sensor_id;sensor_type;location;lat;lon;timestamp;pressure;altitude;pressure_sealevel;temperature;humidity
80414;BME280;69758;52.580;13.068;2023-04-30T00:00:00;101794.74;;;14.47;31.05
80414;BME280;69758;52.580;13.068;2023-04-30T00:02:25;101796.34;;;14.42;31.10
80414;BME280;69758;52.580;13.068;2023-04-30T00:04:51;101798.17;;;14.36;31.10
80414;BME280;69758;52.580;13.068;2023-04-30T00:07:16;101796.83;;;14.32;31.07
80414;BME280;69758;52.580;13.068;2023-04-30T00:09:41;101800.04;;;14.29;31.13
80414;BME280;69758;52.580;13.068;2023-04-30T00:12:07;101799.30;;;14.46;31.04
80414;BME280;69758;52.580;13.068;2023-04-30T00:14:32;101797.70;;;14.15;31.22
80414;BME280;69758;52.580;13.068;2023-04-30T00:16:59;101798.00;;;14.30;31.17
80414;BME280;69758;52.580;13.068;2023-04-30T00:19:22;101799.52;;;14.51;31.18
80414;BME280;69758;52.580;13.068;2023-04-30T00:21:48;101802.16;;;14.00;31.10
80414;BME280;69758;52.580;13.068;2023-04-30T00:24:13;101802.27;;;14.23;30.95
80414;BME280;69758;52.580;13.068;2023-04-30T00:26:38;101799.36;;;14.18;31.04
80414;BME280;69758;52.580;13.068;2023-04-30T00:29:05;101799.98;;;14.17;30.90
80414;BME280;69758;52.580;13.068;2023-04-30T00:31:30;101802.47;;;14.35;30.87
80414;BME280;69758;52.580;13.068;2023-04-30T00:33:55;101805.52;;;14.25;31.12
80414;BME280;69758;52.580;13.068;2023-04-30T00:36:21;101807.14;;;14.23;31.06
80414;BME280;69758;52.580;13.068;2023-04-30T00:38:46;101810.13;;;13.67;31.01
80414;BME280;69758;52.580;13.068;2023-04-30T00:41:11;101811.79;;;14.09;31.06
80414;BME280;69758;52.580;13.068;2023-04-30T00:43:36;101815.78;;;14.00;31.28
80414;BME280;69758;52.580;13.068;2023-04-30T00:46:02;101818.74;;;13.91;31.39
80414;BME280;69758;52.580;13.068;2023-04-30T00:48:27;101821.06;;;13.82;31.45
80414;BME280;69758;52.580;13.068;2023-04-30T00:50:55;101825.90;;;13.79;31.23
80414;BME280;69758;52.580;13.068;2023-04-30T00:53:19;101830.82;;;13.71;31.34
80414;BME280;69758;52.580;13.068;2023-04-30T00:55:44;101836.96;;;13.89;31.41
80414;BME280;69758;52.580;13.068;2023-04-30T00:58:09;101838.86;;;13.57;31.38
80414;BME280;69758;52.580;13.068;2023-04-30T01:00:34;101841.77;;;13.49;31.31
80414;BME280;69758;52.580;13.068;2023-04-30T01:03:00;101844.26;;;13.43;31.21
80414;BME280;69758;52.580;13.068;2023-04-30T01:05:25;101846.78;;;13.37;31.32
80414;BME280;69758;52.580;13.068;2023-04-30T01:07:51;101846.51;;;13.33;31.15
80414;BME280;69758;52.580;13.068;2023-04-30T01:10:16;101845.26;;;13.23;31.22
80414;BME280;69758;52.580;13.068;2023-04-30T01:12:47;101846.45;;;13.34;31.30
80414;BME280;69758;52.580;13.068;2023-04-30T01:15:21;101849.58;;;13.23;31.48
80414;BME280;69758;52.580;13.068;2023-04-30T01:17:36;101854.41;;;12.93;31.42
80414;BME280;69758;52.580;13.068;2023-04-30T01:19:58;101858.08;;;13.13;31.52
80414;BME280;69758;52.580;13.068;2023-04-30T01:22:31;101861.95;;;13.09;31.50
80414;BME280;69758;52.580;13.068;2023-04-30T01:25:04;101860.24;;;13.05;31.59
80414;BME280;69758;52.580;13.068;2023-04-30T01:27:26;101858.09;;;12.74;31.62
80414;BME280;69758;52.580;13.068;2023-04-30T01:29:40;101858.03;;;12.91;31.58
80414;BME280;69758;52.580;13.068;2023-04-30T01:32:05;101860.87;;;13.11;31.53
80414;BME280;69758;52.580;13.068;2023-04-30T01:34:30;101863.07;;;12.78;31.55
80414;BME280;69758;52.580;13.068;2023-04-30T01:37:08;101864.47;;;13.02;31.57
80414;BME280;69758;52.580;13.068;2023-04-30T01:39:34;101868.55;;;12.70;31.67
80414;BME280;69758;52.580;13.068;2023-04-30T01:42:00;101871.06;;;12.65;31.66
80414;BME280;69758;52.580;13.068;2023-04-30T01:44:23;101872.25;;;12.74;31.80
80414;BME280;69758;52.580;13.068;2023-04-30T01:46:37;101876.18;;;12.66;31.76
80414;BME280;69758;52.580;13.068;2023-04-30T01:49:23;101877.85;;;12.67;31.66
80414;BME280;69758;52.580;13.068;2023-04-30T01:51:31;101882.36;;;12.71;31.59
80414;BME280;69758;52.580;13.068;2023-04-30T01:53:56;101886.42;;;12.69;31.69
80414;BME280;69758;52.580;13.068;2023-04-30T01:56:26;101888.00;;;12.65;31.59
80414;BME280;69758;52.580;13.068;2023-04-30T01:58:45;101886.72;;;12.59;31.54
80414;BME280;69758;52.580;13.068;2023-04-30T02:03:34;101891.59;;;12.55;31.62
80414;BME280;69758;52.580;13.068;2023-04-30T02:05:59;101896.40;;;12.50;31.67
80414;BME280;69758;52.580;13.068;2023-04-30T02:08:25;101900.30;;;12.46;31.70
80414;BME280;69758;52.580;13.068;2023-04-30T02:10:50;101905.16;;;12.41;31.59
80414;BME280;69758;52.580;13.068;2023-04-30T02:13:15;101906.18;;;12.40;31.50
80414;BME280;69758;52.580;13.068;2023-04-30T02:15:40;101909.16;;;12.34;31.44
80414;BME280;69758;52.580;13.068;2023-04-30T02:18:06;101908.07;;;12.40;31.44
80414;BME280;69758;52.580;13.068;2023-04-30T02:20:31;101907.68;;;12.35;31.42
80414;BME280;69758;52.580;13.068;2023-04-30T02:22:57;101913.95;;;12.19;31.46
80414;BME280;69758;52.580;13.068;2023-04-30T02:25:22;101915.15;;;12.61;31.51
80414;BME280;69758;52.580;13.068;2023-04-30T02:27:47;101918.50;;;12.09;31.61
80414;BME280;69758;52.580;13.068;2023-04-30T02:30:12;101919.50;;;11.97;31.65
80414;BME280;69758;52.580;13.068;2023-04-30T02:32:38;101921.86;;;11.94;31.82
80414;BME280;69758;52.580;13.068;2023-04-30T02:35:04;101924.99;;;12.19;31.71
80414;BME280;69758;52.580;13.068;2023-04-30T02:37:29;101922.18;;;11.93;31.77
80414;BME280;69758;52.580;13.068;2023-04-30T02:39:54;101920.98;;;11.90;31.73
80414;BME280;69758;52.580;13.068;2023-04-30T02:42:19;101923.87;;;12.27;31.88
80414;BME280;69758;52.580;13.068;2023-04-30T02:44:45;101922.22;;;12.17;32.01
80414;BME280;69758;52.580;13.068;2023-04-30T02:47:10;101926.55;;;11.86;31.97
80414;BME280;69758;52.580;13.068;2023-04-30T02:49:36;101931.77;;;12.05;32.02
80414;BME280;69758;52.580;13.068;2023-04-30T02:52:01;101932.90;;;12.00;32.15
80414;BME280;69758;52.580;13.068;2023-04-30T02:54:27;101932.28;;;11.72;32.13
80414;BME280;69758;52.580;13.068;2023-04-30T02:56:52;101932.21;;;11.87;32.26
80414;BME280;69758;52.580;13.068;2023-04-30T02:59:17;101932.96;;;11.65;32.25
80414;BME280;69758;52.580;13.068;2023-04-30T03:01:42;101932.86;;;11.62;32.14
80414;BME280;69758;52.580;13.068;2023-04-30T03:04:08;101935.43;;;11.76;32.11
80414;BME280;69758;52.580;13.068;2023-04-30T03:06:33;101943.27;;;11.24;32.28
80414;BME280;69758;52.580;13.068;2023-04-30T03:08:59;101945.69;;;11.42;32.30
80414;BME280;69758;52.580;13.068;2023-04-30T03:11:24;101949.58;;;11.62;32.34
80414;BME280;69758;52.580;13.068;2023-04-30T03:13:49;101953.50;;;11.56;32.36
80414;BME280;69758;52.580;13.068;2023-04-30T03:16:15;101953.49;;;11.53;32.48
80414;BME280;69758;52.580;13.068;2023-04-30T03:18:40;101956.84;;;11.52;32.47
80414;BME280;69758;52.580;13.068;2023-04-30T03:21:06;101958.22;;;11.50;32.47
80414;BME280;69758;52.580;13.068;2023-04-30T03:23:31;101962.52;;;11.47;32.51
80414;BME280;69758;52.580;13.068;2023-04-30T03:25:57;101961.70;;;11.45;32.52
80414;BME280;69758;52.580;13.068;2023-04-30T03:28:22;101963.03;;;11.42;32.71
80414;BME280;69758;52.580;13.068;2023-04-30T03:30:48;101964.65;;;11.62;32.74
80414;BME280;69758;52.580;13.068;2023-04-30T03:33:13;101966.48;;;11.42;32.63
80414;BME280;69758;52.580;13.068;2023-04-30T03:35:38;101968.70;;;11.45;32.62
80414;BME280;69758;52.580;13.068;2023-04-30T03:38:04;101968.87;;;11.41;32.58
80414;BME280;69758;52.580;13.068;2023-04-30T03:40:29;101970.60;;;11.61;32.49
80414;BME280;69758;52.580;13.068;2023-04-30T03:42:55;101972.44;;;11.35;32.55
80414;BME280;69758;52.580;13.068;2023-04-30T03:45:20;101975.82;;;11.27;32.63
80414;BME280;69758;52.580;13.068;2023-04-30T03:47:45;101978.99;;;11.23;32.72
80414;BME280;69758;52.580;13.068;2023-04-30T03:50:11;101978.60;;;11.24;32.63
80414;BME280;69758;52.580;13.068;2023-04-30T03:52:36;101979.41;;;11.22;32.66
80414;BME280;69758;52.580;13.068;2023-04-30T03:55:02;101981.50;;;11.22;32.79
80414;BME280;69758;52.580;13.068;2023-04-30T03:57:27;101982.23;;;11.40;32.86
80414;BME280;69758;52.580;13.068;2023-04-30T03:59:52;101985.98;;;11.13;32.94
80414;BME280;69758;52.580;13.068;2023-04-30T04:02:18;101986.48;;;11.12;32.93
80414;BME280;69758;52.580;13.068;2023-04-30T04:04:43;101985.35;;;11.06;32.94
80414;BME280;69758;52.580;13.068;2023-04-30T04:07:09;101986.10;;;11.07;32.98
80414;BME280;69758;52.580;13.068;2023-04-30T04:09:34;101990.19;;;11.07;33.04
80414;BME280;69758;52.580;13.068;2023-04-30T04:12:00;101996.27;;;11.29;33.12
80414;BME280;69758;52.580;13.068;2023-04-30T04:14:25;101998.21;;;11.05;33.29
80414;BME280;69758;52.580;13.068;2023-04-30T04:16:50;102005.65;;;11.08;33.22
80414;BME280;69758;52.580;13.068;2023-04-30T04:19:16;102006.22;;;11.05;33.49
80414;BME280;69758;52.580;13.068;2023-04-30T04:21:41;102011.53;;;11.48;33.59
80414;BME280;69758;52.580;13.068;2023-04-30T04:24:07;102015.55;;;11.44;33.82
80414;BME280;69758;52.580;13.068;2023-04-30T04:26:32;102019.69;;;11.05;33.65
80414;BME280;69758;52.580;13.068;2023-04-30T04:28:58;102023.55;;;11.25;33.82
80414;BME280;69758;52.580;13.068;2023-04-30T04:31:23;102022.06;;;10.99;33.83
80414;BME280;69758;52.580;13.068;2023-04-30T04:33:48;102028.03;;;10.92;33.98
80414;BME280;69758;52.580;13.068;2023-04-30T04:36:14;102028.91;;;10.98;33.93
80414;BME280;69758;52.580;13.068;2023-04-30T04:38:39;102034.75;;;10.83;34.17
80414;BME280;69758;52.580;13.068;2023-04-30T04:41:05;102036.16;;;11.02;34.33
80414;BME280;69758;52.580;13.068;2023-04-30T04:43:31;102038.19;;;11.29;34.30
80414;BME280;69758;52.580;13.068;2023-04-30T04:45:56;102040.00;;;10.86;34.48
80414;BME280;69758;52.580;13.068;2023-04-30T04:48:21;102043.59;;;10.34;34.81
80414;BME280;69758;52.580;13.068;2023-04-30T04:50:47;102045.08;;;10.76;34.71
80414;BME280;69758;52.580;13.068;2023-04-30T04:53:12;102048.47;;;10.88;34.61
80414;BME280;69758;52.580;13.068;2023-04-30T04:55:38;102051.83;;;10.70;34.68
80414;BME280;69758;52.580;13.068;2023-04-30T04:58:03;102055.84;;;10.73;34.56
80414;BME280;69758;52.580;13.068;2023-04-30T05:00:28;102059.02;;;10.88;34.44
80414;BME280;69758;52.580;13.068;2023-04-30T05:02:54;102064.07;;;11.48;34.29
80414;BME280;69758;52.580;13.068;2023-04-30T05:05:19;102068.57;;;11.13;34.35
80414;BME280;69758;52.580;13.068;2023-04-30T05:07:45;102071.31;;;10.94;34.56
80414;BME280;69758;52.580;13.068;2023-04-30T05:10:10;102072.86;;;10.72;34.72
80414;BME280;69758;52.580;13.068;2023-04-30T05:12:35;102073.92;;;10.51;35.18
80414;BME280;69758;52.580;13.068;2023-04-30T05:15:02;102077.70;;;10.60;35.16
80414;BME280;69758;52.580;13.068;2023-04-30T05:17:27;102083.11;;;10.16;35.21
80414;BME280;69758;52.580;13.068;2023-04-30T05:19:52;102085.78;;;10.50;35.35
80414;BME280;69758;52.580;13.068;2023-04-30T05:22:18;102081.83;;;9.86;36.01
80414;BME280;69758;52.580;13.068;2023-04-30T05:24:43;102083.21;;;10.27;35.78
80414;BME280;69758;52.580;13.068;2023-04-30T05:27:09;102092.77;;;10.45;35.62
80414;BME280;69758;52.580;13.068;2023-04-30T05:29:34;102094.56;;;10.47;35.20
80414;BME280;69758;52.580;13.068;2023-04-30T05:31:59;102094.08;;;10.33;35.61
80414;BME280;69758;52.580;13.068;2023-04-30T05:34:24;102093.46;;;10.33;35.81
80414;BME280;69758;52.580;13.068;2023-04-30T05:36:50;102098.72;;;10.22;35.65
80414;BME280;69758;52.580;13.068;2023-04-30T05:39:15;102101.94;;;9.76;35.82
80414;BME280;69758;52.580;13.068;2023-04-30T05:41:40;102104.89;;;9.97;35.94
80414;BME280;69758;52.580;13.068;2023-04-30T05:44:06;102108.27;;;10.54;35.52
80414;BME280;69758;52.580;13.068;2023-04-30T05:46:31;102107.03;;;10.65;35.00
80414;BME280;69758;52.580;13.068;2023-04-30T05:48:56;102109.22;;;10.62;35.16
80414;BME280;69758;52.580;13.068;2023-04-30T05:51:27;102110.14;;;11.12;34.61
80414;BME280;69758;52.580;13.068;2023-04-30T05:53:47;102112.86;;;10.62;34.78
80414;BME280;69758;52.580;13.068;2023-04-30T05:56:12;102111.26;;;10.38;34.76
80414;BME280;69758;52.580;13.068;2023-04-30T05:58:38;102111.75;;;10.36;35.38
80414;BME280;69758;52.580;13.068;2023-04-30T06:01:03;102115.20;;;10.24;35.02
80414;BME280;69758;52.580;13.068;2023-04-30T06:03:28;102122.09;;;9.91;35.80
80414;BME280;69758;52.580;13.068;2023-04-30T06:05:54;102121.95;;;10.13;35.76
80414;BME280;69758;52.580;13.068;2023-04-30T06:08:19;102125.06;;;9.36;36.58
80414;BME280;69758;52.580;13.068;2023-04-30T06:10:44;102119.93;;;9.96;35.89
80414;BME280;69758;52.580;13.068;2023-04-30T06:13:10;102122.21;;;10.62;35.07
80414;BME280;69758;52.580;13.068;2023-04-30T06:15:35;102123.74;;;9.99;35.13
80414;BME280;69758;52.580;13.068;2023-04-30T06:18:01;102129.29;;;9.99;35.32
80414;BME280;69758;52.580;13.068;2023-04-30T06:20:25;102134.76;;;10.26;34.85
80414;BME280;69758;52.580;13.068;2023-04-30T06:22:51;102137.74;;;11.06;34.12
80414;BME280;69758;52.580;13.068;2023-04-30T06:25:16;102141.80;;;9.98;34.82
80414;BME280;69758;52.580;13.068;2023-04-30T06:27:42;102144.91;;;10.03;34.57
80414;BME280;69758;52.580;13.068;2023-04-30T06:30:08;102143.84;;;10.18;34.91
80414;BME280;69758;52.580;13.068;2023-04-30T06:32:32;102146.16;;;10.24;34.53
80414;BME280;69758;52.580;13.068;2023-04-30T06:34:58;102145.26;;;9.64;35.18
80414;BME280;69758;52.580;13.068;2023-04-30T06:37:23;102146.85;;;10.30;34.70
80414;BME280;69758;52.580;13.068;2023-04-30T06:39:48;102149.18;;;9.95;34.38
80414;BME280;69758;52.580;13.068;2023-04-30T06:42:14;102149.37;;;10.68;33.71
80414;BME280;69758;52.580;13.068;2023-04-30T06:44:39;102153.11;;;10.71;33.82
80414;BME280;69758;52.580;13.068;2023-04-30T06:47:04;102153.90;;;10.25;33.88
80414;BME280;69758;52.580;13.068;2023-04-30T06:49:30;102148.77;;;10.26;34.21
80414;BME280;69758;52.580;13.068;2023-04-30T06:51:55;102152.52;;;10.46;34.48
80414;BME280;69758;52.580;13.068;2023-04-30T06:54:20;102151.30;;;10.25;34.25
80414;BME280;69758;52.580;13.068;2023-04-30T06:56:46;102148.30;;;10.08;34.23
80414;BME280;69758;52.580;13.068;2023-04-30T06:59:11;102148.75;;;10.96;33.64
80414;BME280;69758;52.580;13.068;2023-04-30T07:01:37;102149.48;;;10.98;32.89
80414;BME280;69758;52.580;13.068;2023-04-30T07:04:02;102148.25;;;10.36;34.19
80414;BME280;69758;52.580;13.068;2023-04-30T07:06:27;102145.88;;;11.10;33.59
80414;BME280;69758;52.580;13.068;2023-04-30T07:08:53;102148.89;;;11.20;32.84
80414;BME280;69758;52.580;13.068;2023-04-30T07:11:18;102145.09;;;11.23;32.25
80414;BME280;69758;52.580;13.068;2023-04-30T07:13:43;102148.95;;;11.40;32.36
80414;BME280;69758;52.580;13.068;2023-04-30T07:16:10;102147.05;;;11.91;31.93
80414;BME280;69758;52.580;13.068;2023-04-30T07:18:35;102150.16;;;11.92;31.31
80414;BME280;69758;52.580;13.068;2023-04-30T07:21:00;102150.94;;;11.53;31.63
80414;BME280;69758;52.580;13.068;2023-04-30T07:23:25;102157.97;;;11.77;32.33
80414;BME280;69758;52.580;13.068;2023-04-30T07:25:50;102154.10;;;11.50;31.19
80414;BME280;69758;52.580;13.068;2023-04-30T07:28:16;102150.70;;;11.27;31.63
80414;BME280;69758;52.580;13.068;2023-04-30T07:30:41;102153.35;;;11.07;30.64
80414;BME280;69758;52.580;13.068;2023-04-30T07:33:06;102151.72;;;10.49;31.89
80414;BME280;69758;52.580;13.068;2023-04-30T07:35:32;102148.72;;;10.71;30.33
80414;BME280;69758;52.580;13.068;2023-04-30T07:37:57;102145.53;;;11.67;30.01
80414;BME280;69758;52.580;13.068;2023-04-30T07:40:22;102147.20;;;11.52;29.66
80414;BME280;69758;52.580;13.068;2023-04-30T07:42:48;102150.40;;;11.58;29.44
80414;BME280;69758;52.580;13.068;2023-04-30T07:45:13;102154.80;;;11.96;29.44
80414;BME280;69758;52.580;13.068;2023-04-30T07:47:38;102155.77;;;11.79;27.95
80414;BME280;69758;52.580;13.068;2023-04-30T07:50:04;102155.45;;;11.77;27.60
80414;BME280;69758;52.580;13.068;2023-04-30T07:52:29;102161.64;;;11.97;27.66
80414;BME280;69758;52.580;13.068;2023-04-30T07:54:54;102156.95;;;11.74;27.32
80414;BME280;69758;52.580;13.068;2023-04-30T07:57:19;102156.35;;;11.52;28.30
80414;BME280;69758;52.580;13.068;2023-04-30T07:59:45;102162.38;;;11.84;27.37
80414;BME280;69758;52.580;13.068;2023-04-30T08:02:10;102155.17;;;12.01;26.55
80414;BME280;69758;52.580;13.068;2023-04-30T08:04:35;102153.80;;;12.78;25.42
80414;BME280;69758;52.580;13.068;2023-04-30T08:07:00;102155.05;;;12.34;25.13
80414;BME280;69758;52.580;13.068;2023-04-30T08:09:26;102151.56;;;12.34;24.93
80414;BME280;69758;52.580;13.068;2023-04-30T08:11:52;102151.96;;;12.49;26.30
80414;BME280;69758;52.580;13.068;2023-04-30T08:14:16;102154.19;;;12.61;25.77
80414;BME280;69758;52.580;13.068;2023-04-30T08:16:42;102159.70;;;12.51;26.12
80414;BME280;69758;52.580;13.068;2023-04-30T08:19:07;102158.32;;;11.91;26.48
80414;BME280;69758;52.580;13.068;2023-04-30T08:21:33;102159.77;;;12.28;27.00
80414;BME280;69758;52.580;13.068;2023-04-30T08:23:58;102166.72;;;12.79;26.78
80414;BME280;69758;52.580;13.068;2023-04-30T08:26:24;102165.97;;;12.80;26.54
80414;BME280;69758;52.580;13.068;2023-04-30T08:28:49;102163.02;;;13.15;26.10
80414;BME280;69758;52.580;13.068;2023-04-30T08:31:14;102163.20;;;12.81;25.40
80414;BME280;69758;52.580;13.068;2023-04-30T08:33:39;102163.35;;;12.87;25.06
80414;BME280;69758;52.580;13.068;2023-04-30T08:36:05;102164.58;;;13.23;25.61
80414;BME280;69758;52.580;13.068;2023-04-30T08:38:30;102163.56;;;13.43;25.19
80414;BME280;69758;52.580;13.068;2023-04-30T08:41:03;102163.64;;;12.62;25.56
80414;BME280;69758;52.580;13.068;2023-04-30T08:43:21;102165.68;;;12.75;25.54
80414;BME280;69758;52.580;13.068;2023-04-30T08:45:46;102169.71;;;13.07;24.67
80414;BME280;69758;52.580;13.068;2023-04-30T08:48:12;102165.97;;;13.14;25.31
80414;BME280;69758;52.580;13.068;2023-04-30T08:50:36;102165.22;;;13.44;25.89
80414;BME280;69758;52.580;13.068;2023-04-30T08:53:02;102171.68;;;12.86;25.24
80414;BME280;69758;52.580;13.068;2023-04-30T08:55:29;102166.09;;;13.20;25.03
80414;BME280;69758;52.580;13.068;2023-04-30T08:57:52;102168.91;;;13.47;24.22
80414;BME280;69758;52.580;13.068;2023-04-30T09:00:18;102168.41;;;13.56;23.88
80414;BME280;69758;52.580;13.068;2023-04-30T09:02:44;102167.96;;;13.76;24.39
80414;BME280;69758;52.580;13.068;2023-04-30T09:05:10;102168.68;;;13.97;23.97
80414;BME280;69758;52.580;13.068;2023-04-30T09:07:34;102162.25;;;13.91;24.08
80414;BME280;69758;52.580;13.068;2023-04-30T09:09:59;102170.12;;;13.37;24.55
80414;BME280;69758;52.580;13.068;2023-04-30T09:12:24;102176.26;;;13.37;23.74
80414;BME280;69758;52.580;13.068;2023-04-30T09:14:59;102174.77;;;13.88;23.97
80414;BME280;69758;52.580;13.068;2023-04-30T09:17:20;102173.40;;;13.38;23.10
80414;BME280;69758;52.580;13.068;2023-04-30T09:19:40;102179.87;;;13.49;23.22
80414;BME280;69758;52.580;13.068;2023-04-30T09:22:17;102174.59;;;13.48;23.01
80414;BME280;69758;52.580;13.068;2023-04-30T09:24:44;102169.79;;;14.01;23.12
80414;BME280;69758;52.580;13.068;2023-04-30T09:26:56;102173.65;;;13.70;23.05
80414;BME280;69758;52.580;13.068;2023-04-30T09:29:21;102168.71;;;14.02;22.75
80414;BME280;69758;52.580;13.068;2023-04-30T09:31:46;102176.36;;;14.45;22.57
80414;BME280;69758;52.580;13.068;2023-04-30T09:34:12;102170.44;;;14.38;24.22
80414;BME280;69758;52.580;13.068;2023-04-30T09:36:51;102174.27;;;14.51;22.94
80414;BME280;69758;52.580;13.068;2023-04-30T09:39:09;102174.81;;;14.14;22.49
80414;BME280;69758;52.580;13.068;2023-04-30T09:41:28;102179.32;;;13.85;23.12
80414;BME280;69758;52.580;13.068;2023-04-30T09:43:53;102174.89;;;13.80;23.76
80414;BME280;69758;52.580;13.068;2023-04-30T09:46:20;102172.12;;;14.58;22.84
80414;BME280;69758;52.580;13.068;2023-04-30T09:48:44;102173.61;;;14.54;23.54
80414;BME280;69758;52.580;13.068;2023-04-30T09:51:09;102170.48;;;14.77;22.97
80414;BME280;69758;52.580;13.068;2023-04-30T09:53:36;102173.02;;;14.78;23.21
80414;BME280;69758;52.580;13.068;2023-04-30T09:56:02;102170.42;;;15.02;21.81
80414;BME280;69758;52.580;13.068;2023-04-30T09:58:27;102171.79;;;14.69;23.22
80414;BME280;69758;52.580;13.068;2023-04-30T10:00:51;102165.49;;;14.80;22.90
80414;BME280;69758;52.580;13.068;2023-04-30T10:03:15;102165.05;;;15.32;22.53
80414;BME280;69758;52.580;13.068;2023-04-30T10:05:41;102170.35;;;15.69;21.79
80414;BME280;69758;52.580;13.068;2023-04-30T10:08:09;102170.45;;;15.09;22.50
80414;BME280;69758;52.580;13.068;2023-04-30T10:10:32;102167.84;;;14.41;22.44
80414;BME280;69758;52.580;13.068;2023-04-30T10:13:01;102163.34;;;14.73;22.75
80414;BME280;69758;52.580;13.068;2023-04-30T10:15:25;102159.92;;;14.95;23.62
80414;BME280;69758;52.580;13.068;2023-04-30T10:17:52;102155.84;;;15.37;24.16
80414;BME280;69758;52.580;13.068;2023-04-30T10:20:13;102155.30;;;15.78;22.82
80414;BME280;69758;52.580;13.068;2023-04-30T10:22:38;102149.54;;;15.80;21.73
80414;BME280;69758;52.580;13.068;2023-04-30T10:25:04;102149.71;;;15.66;22.48
80414;BME280;69758;52.580;13.068;2023-04-30T10:27:29;102147.64;;;16.20;22.50
80414;BME280;69758;52.580;13.068;2023-04-30T10:29:54;102151.08;;;15.02;22.22
80414;BME280;69758;52.580;13.068;2023-04-30T10:32:19;102142.97;;;14.92;21.58
80414;BME280;69758;52.580;13.068;2023-04-30T10:34:49;102143.15;;;15.46;23.08
80414;BME280;69758;52.580;13.068;2023-04-30T10:37:14;102141.24;;;15.42;21.77
80414;BME280;69758;52.580;13.068;2023-04-30T10:39:36;102132.89;;;15.51;22.70
80414;BME280;69758;52.580;13.068;2023-04-30T10:42:01;102136.09;;;15.04;23.66
80414;BME280;69758;52.580;13.068;2023-04-30T10:44:25;102140.09;;;14.77;23.56
80414;BME280;69758;52.580;13.068;2023-04-30T10:46:57;102133.19;;;15.72;22.15
80414;BME280;69758;52.580;13.068;2023-04-30T10:49:23;102133.69;;;16.30;22.29
80414;BME280;69758;52.580;13.068;2023-04-30T10:51:46;102142.56;;;16.04;21.62
80414;BME280;69758;52.580;13.068;2023-04-30T10:54:07;102134.93;;;16.02;22.64
80414;BME280;69758;52.580;13.068;2023-04-30T10:56:32;102132.14;;;15.83;22.10
80414;BME280;69758;52.580;13.068;2023-04-30T10:58:58;102130.42;;;15.49;22.13
80414;BME280;69758;52.580;13.068;2023-04-30T11:01:22;102126.59;;;15.37;22.40
80414;BME280;69758;52.580;13.068;2023-04-30T11:06:14;102120.83;;;16.14;22.11
80414;BME280;69758;52.580;13.068;2023-04-30T11:08:42;102119.03;;;15.43;22.03
80414;BME280;69758;52.580;13.068;2023-04-30T11:11:04;102122.88;;;14.43;22.69
80414;BME280;69758;52.580;13.068;2023-04-30T11:13:28;102121.13;;;14.43;22.25
80414;BME280;69758;52.580;13.068;2023-04-30T11:15:54;102122.94;;;14.93;22.45
80414;BME280;69758;52.580;13.068;2023-04-30T11:18:19;102121.24;;;15.38;23.55
80414;BME280;69758;52.580;13.068;2023-04-30T11:20:49;102120.24;;;15.55;22.41
80414;BME280;69758;52.580;13.068;2023-04-30T11:23:10;102116.37;;;15.93;22.36
80414;BME280;69758;52.580;13.068;2023-04-30T11:25:39;102113.70;;;16.24;23.68
80414;BME280;69758;52.580;13.068;2023-04-30T11:28:00;102124.03;;;16.14;22.07
80414;BME280;69758;52.580;13.068;2023-04-30T11:30:25;102121.30;;;16.27;21.37
80414;BME280;69758;52.580;13.068;2023-04-30T11:32:50;102112.80;;;16.53;21.55
80414;BME280;69758;52.580;13.068;2023-04-30T11:35:17;102112.87;;;16.25;21.06
80414;BME280;69758;52.580;13.068;2023-04-30T11:37:42;102113.03;;;16.83;20.64
80414;BME280;69758;52.580;13.068;2023-04-30T11:40:08;102109.63;;;16.66;20.73
80414;BME280;69758;52.580;13.068;2023-04-30T11:42:31;102108.17;;;16.55;20.43
80414;BME280;69758;52.580;13.068;2023-04-30T11:45:02;102115.41;;;16.22;20.72
80414;BME280;69758;52.580;13.068;2023-04-30T11:47:22;102112.11;;;16.22;20.60
80414;BME280;69758;52.580;13.068;2023-04-30T11:49:50;102113.01;;;15.36;21.15
80414;BME280;69758;52.580;13.068;2023-04-30T11:52:12;102100.12;;;15.96;20.94
80414;BME280;69758;52.580;13.068;2023-04-30T11:54:38;102103.46;;;16.26;21.71
80414;BME280;69758;52.580;13.068;2023-04-30T11:57:03;102097.09;;;15.62;22.22
80414;BME280;69758;52.580;13.068;2023-04-30T11:59:28;102097.87;;;15.95;23.07
80414;BME280;69758;52.580;13.068;2023-04-30T12:01:53;102095.75;;;16.18;22.79
80414;BME280;69758;52.580;13.068;2023-04-30T12:04:18;102093.98;;;16.68;22.67
80414;BME280;69758;52.580;13.068;2023-04-30T12:06:44;102086.31;;;15.56;22.61
80414;BME280;69758;52.580;13.068;2023-04-30T12:09:09;102091.09;;;16.51;22.06
80414;BME280;69758;52.580;13.068;2023-04-30T12:11:34;102093.65;;;16.58;22.40
80414;BME280;69758;52.580;13.068;2023-04-30T12:14:01;102091.21;;;16.45;21.06
80414;BME280;69758;52.580;13.068;2023-04-30T12:16:24;102084.13;;;16.67;21.61
80414;BME280;69758;52.580;13.068;2023-04-30T12:18:49;102089.11;;;17.00;20.02
80414;BME280;69758;52.580;13.068;2023-04-30T12:21:15;102086.85;;;16.64;20.93
80414;BME280;69758;52.580;13.068;2023-04-30T12:23:40;102091.32;;;16.26;21.13
80414;BME280;69758;52.580;13.068;2023-04-30T12:26:05;102083.95;;;16.39;22.41
80414;BME280;69758;52.580;13.068;2023-04-30T12:28:30;102084.63;;;17.25;21.07
80414;BME280;69758;52.580;13.068;2023-04-30T12:30:55;102086.95;;;17.05;21.29
80414;BME280;69758;52.580;13.068;2023-04-30T12:33:21;102087.99;;;15.31;21.05